Time;durP1;ratioP1;P1;durP2;ratioP2;P2;SDS_P1;SDS_P2;PMS_P1;PMS_P2;Temp;Humidity;BMP_temperature;BMP_pressure;BME280_temperature;BME280_humidity;BME280_pressure;Samples;Min_cycle;Max_cycle;Signal;HPM_P1;HPM_P2
2022/07/25 00:01:40;;;;;;;8.57;5.78;;;;;;;22.78;70.30;94662.97;5063564;28;20224;-75
2022/07/25 00:04:08;;;;;;;8.68;5.78;;;;;;;22.74;71.91;94662.16;5061272;28;20256;-75
2022/07/25 00:06:35;;;;;;;10.27;6.38;;;;;;;22.90;71.62;94659.72;5056517;28;20213;-75
2022/07/25 00:09:03;;;;;;;10.60;8.20;;;;;;;22.64;72.78;94658.28;5058913;28;20199;-77
2022/07/25 00:11:30;;;;;;;10.43;6.60;;;;;;;22.51;73.06;94666.25;5063248;28;20204;-74
2022/07/25 00:13:57;;;;;;;10.52;6.47;;;;;;;22.44;73.54;94660.75;5061649;28;20199;-77
2022/07/25 00:16:24;;;;;;;9.07;6.95;;;;;;;22.43;74.33;94669.44;5056587;28;20218;-75
2022/07/25 00:18:51;;;;;;;12.68;9.40;;;;;;;22.44;74.43;94665.47;5057934;28;20223;-77
2022/07/25 00:21:18;;;;;;;12.25;8.70;;;;;;;22.43;74.57;94667.47;5063553;28;20764;-75
2022/07/25 00:23:44;;;;;;;8.07;5.70;;;;;;;22.55;73.55;94661.47;5062455;28;20203;-77
2022/07/25 00:26:13;;;;;;;8.98;6.10;;;;;;;22.72;73.75;94667.31;5055400;28;20713;-75
2022/07/25 00:28:40;;;;;;;8.82;6.05;;;;;;;22.59;73.16;94651.19;5057573;28;20649;-77
2022/07/25 00:31:06;;;;;;;10.90;6.55;;;;;;;22.54;73.33;94648.88;5063478;28;20258;-77
2022/07/25 00:33:33;;;;;;;9.15;6.00;;;;;;;22.56;73.54;94651.22;5062805;28;20199;-75
2022/07/25 00:36:00;;;;;;;8.70;5.90;;;;;;;22.69;73.26;94644.03;5056166;28;20203;-75
2022/07/25 00:38:27;;;;;;;7.63;5.45;;;;;;;22.83;72.60;94643.19;5069273;28;20658;-75
2022/07/25 00:40:54;;;;;;;10.75;5.95;;;;;;;22.92;72.81;94629.72;5056897;28;20222;-75
2022/07/25 00:43:23;;;;;;;8.52;5.97;;;;;;;22.96;73.09;94634.00;5055838;28;20742;-76
2022/07/25 00:45:50;;;;;;;9.63;6.20;;;;;;;22.89;72.88;94638.81;5070269;28;20233;-76
2022/07/25 00:48:17;;;;;;;10.93;6.28;;;;;;;22.96;72.99;94624.94;5055741;28;20645;-75
2022/07/25 00:50:44;;;;;;;9.32;6.40;;;;;;;22.96;73.78;94636.75;5060752;28;20238;-76
2022/07/25 00:53:11;;;;;;;9.75;6.95;;;;;;;22.63;74.21;94623.56;5062879;28;20261;-76
2022/07/25 00:55:38;;;;;;;8.27;6.18;;;;;;;22.62;73.90;94642.13;5058077;28;20203;-76
2022/07/25 00:58:05;;;;;;;9.20;6.20;;;;;;;22.63;73.74;94645.66;5053862;28;20208;-76
2022/07/25 01:00:33;;;;;;;11.38;5.68;;;;;;;22.64;73.54;94642.50;5058192;28;20210;-75
2022/07/25 01:03:00;;;;;;;11.23;6.53;;;;;;;22.65;72.91;94644.06;5058767;28;20208;-75
2022/07/25 01:05:27;;;;;;;12.07;6.45;;;;;;;22.75;72.39;94650.72;5064510;28;20249;-76
2022/07/25 01:07:54;;;;;;;9.05;6.43;;;;;;;22.72;72.52;94642.44;5066954;28;20574;-76
2022/07/25 01:10:21;;;;;;;11.48;6.85;;;;;;;22.87;71.42;94643.94;5062312;28;20215;-75
2022/07/25 01:12:50;;;;;;;8.20;5.72;;;;;;;22.90;70.56;94640.38;5059647;28;20199;-75
2022/07/25 01:15:18;;;;;;;8.77;6.45;;;;;;;23.05;71.13;94630.78;5073310;28;20207;-75
2022/07/25 01:17:46;;;;;;;10.15;5.78;;;;;;;23.10;70.83;94635.84;5059589;28;20215;-75
2022/07/25 01:20:16;;;;;;;8.88;6.05;;;;;;;23.23;71.94;94634.19;5062516;28;20835;-75
2022/07/25 01:22:43;;;;;;;8.32;5.68;;;;;;;23.11;72.42;94637.44;5052716;28;20284;-75
2022/07/25 01:25:10;;;;;;;9.48;6.20;;;;;;;23.06;73.21;94645.41;5063538;28;20207;-75
2022/07/25 01:27:37;;;;;;;9.82;5.97;;;;;;;23.04;72.12;94640.28;5055154;28;20236;-75
2022/07/25 01:30:06;;;;;;;12.10;6.95;;;;;;;23.08;72.08;94632.75;5063793;28;20602;-76
2022/07/25 01:32:33;;;;;;;8.43;6.10;;;;;;;23.10;71.89;94632.34;5059443;28;20674;-75
2022/07/25 01:35:00;;;;;;;11.05;6.22;;;;;;;23.11;72.05;94631.13;5061323;28;20200;-75
2022/07/25 01:37:28;;;;;;;11.25;8.27;;;;;;;23.19;72.34;94632.66;5058744;28;20312;-75
2022/07/25 01:39:55;;;;;;;11.48;8.55;;;;;;;23.13;72.68;94635.06;5059640;28;20208;-76
2022/07/25 01:42:22;;;;;;;11.00;8.55;;;;;;;23.04;71.60;94629.22;5065668;28;20227;-75
2022/07/25 01:44:49;;;;;;;9.95;8.20;;;;;;;23.02;72.67;94634.34;5065506;28;20218;-75
2022/07/25 01:47:17;;;;;;;10.30;8.30;;;;;;;23.09;71.83;94634.31;5059049;28;20745;-75
2022/07/25 01:49:44;;;;;;;11.70;8.50;;;;;;;23.04;72.43;94643.03;5058989;28;20207;-75
2022/07/25 01:52:11;;;;;;;9.00;5.70;;;;;;;23.09;71.84;94639.84;5064866;28;20204;-75
2022/07/25 01:54:39;;;;;;;9.88;5.80;;;;;;;22.97;72.38;94637.53;5065265;28;20657;-75
2022/07/25 01:57:07;;;;;;;7.65;5.72;;;;;;;22.95;72.40;94634.44;5059715;28;20561;-75
2022/07/25 01:59:37;;;;;;;12.07;8.05;;;;;;;22.94;72.07;94643.91;5058526;28;20211;-75
2022/07/25 02:02:04;;;;;;;8.45;6.05;;;;;;;22.93;71.38;94645.09;5063425;28;20235;-75
2022/07/25 02:04:31;;;;;;;11.02;5.90;;;;;;;22.81;71.54;94642.81;5054203;28;20646;-76
2022/07/25 02:06:58;;;;;;;10.52;6.25;;;;;;;22.73;70.79;94644.00;5063647;28;20207;-76
2022/07/25 02:09:25;;;;;;;9.65;5.97;;;;;;;22.89;71.37;94653.41;5065536;28;20631;-76
2022/07/25 02:11:53;;;;;;;10.38;7.93;;;;;;;22.94;71.68;94638.38;5061222;28;20207;-76
2022/07/25 02:14:19;;;;;;;9.25;6.13;;;;;;;22.91;72.23;94644.72;5057171;28;20605;-76
2022/07/25 02:16:46;;;;;;;9.40;6.53;;;;;;;22.71;73.24;94647.19;5062123;28;20776;-76
2022/07/25 02:19:13;;;;;;;13.00;7.07;;;;;;;22.60;74.84;94647.25;5065737;28;20200;-76
2022/07/25 02:21:40;;;;;;;10.30;6.13;;;;;;;22.52;74.64;94644.94;5052153;28;20643;-76
2022/07/25 02:24:07;;;;;;;13.25;6.95;;;;;;;22.45;75.05;94645.75;5068680;28;20203;-75
2022/07/25 02:26:34;;;;;;;13.70;6.85;;;;;;;22.31;75.98;94646.63;5061339;28;20235;-76
2022/07/25 02:29:02;;;;;;;9.38;6.03;;;;;;;22.26;74.11;94643.50;5065344;28;20207;-76
2022/07/25 02:31:29;;;;;;;9.65;5.85;;;;;;;22.19;74.87;94649.84;5062601;28;20195;-76
2022/07/25 02:33:56;;;;;;;12.60;8.70;;;;;;;22.18;74.53;94645.50;5058270;28;20252;-76
2022/07/25 02:36:24;;;;;;;8.70;6.28;;;;;;;22.25;74.78;94652.97;5060741;28;20219;-76
2022/07/25 02:38:51;;;;;;;9.65;6.70;;;;;;;22.28;75.26;94646.63;5056078;28;20229;-76
2022/07/25 02:41:18;;;;;;;9.27;6.55;;;;;;;22.32;75.70;94647.41;5060924;28;20204;-76
2022/07/25 02:43:45;;;;;;;14.73;6.78;;;;;;;22.30;74.81;94644.25;5068915;28;20572;-76
2022/07/25 02:46:13;;;;;;;11.40;6.70;;;;;;;22.20;75.89;94634.84;5059953;28;20231;-76
2022/07/25 02:48:40;;;;;;;12.02;8.02;;;;;;;22.19;75.87;94635.25;5065234;28;20266;-76
2022/07/25 02:51:07;;;;;;;12.45;8.85;;;;;;;22.07;76.50;94632.94;5063210;28;20272;-76
2022/07/25 02:53:37;;;;;;;9.30;5.10;;;;;;;21.93;76.45;94642.81;5057595;28;20241;-76
2022/07/25 02:56:04;;;;;;;9.88;6.20;;;;;;;21.76;77.16;94643.66;5059267;28;20650;-76
2022/07/25 02:58:31;;;;;;;10.02;6.05;;;;;;;21.67;76.98;94646.06;5064460;28;20575;-76
2022/07/25 03:00:58;;;;;;;8.95;6.28;;;;;;;21.70;75.20;94648.03;5062881;28;20616;-75
2022/07/25 03:03:26;;;;;;;10.82;8.38;;;;;;;21.74;75.53;94640.50;5051774;28;20349;-76
2022/07/25 03:05:53;;;;;;;7.78;5.22;;;;;;;21.71;75.87;94644.09;5064049;28;20267;-76
2022/07/25 03:08:19;;;;;;;10.85;6.72;;;;;;;21.62;76.71;94643.69;5058086;28;20203;-76
2022/07/25 03:10:46;;;;;;;10.65;6.47;;;;;;;21.48;76.99;94643.72;5058540;28;20301;-76
2022/07/25 03:13:13;;;;;;;12.75;6.40;;;;;;;21.58;76.72;94645.69;5064618;28;20261;-76
2022/07/25 03:15:40;;;;;;;8.45;5.32;;;;;;;21.56;76.41;94650.81;5050461;28;20646;-76
2022/07/25 03:18:07;;;;;;;11.70;6.78;;;;;;;21.57;75.30;94642.16;5063440;28;20777;-76
2022/07/25 03:20:35;;;;;;;7.50;5.05;;;;;;;21.47;74.39;94642.94;5063604;28;20199;-75
2022/07/25 03:23:02;;;;;;;9.77;5.07;;;;;;;21.42;74.65;94650.84;5063389;28;20633;-76
2022/07/25 03:25:28;;;;;;;11.40;5.28;;;;;;;21.42;74.12;94646.13;5063385;28;20322;-76
2022/07/25 03:27:56;;;;;;;9.52;6.03;;;;;;;21.49;73.28;94650.81;5057560;28;20191;-76
2022/07/25 03:30:22;;;;;;;9.10;5.88;;;;;;;21.43;73.00;94647.69;5056658;28;20210;-75
2022/07/25 03:32:49;;;;;;;9.30;5.35;;;;;;;21.52;71.92;94655.53;5063713;28;20199;-76
2022/07/25 03:35:16;;;;;;;12.70;5.38;;;;;;;21.60;71.17;94651.56;5064301;28;20207;-76
2022/07/25 03:37:44;;;;;;;7.22;4.85;;;;;;;21.60;70.61;94657.09;5058940;28;20592;-76
2022/07/25 03:40:13;;;;;;;10.32;4.72;;;;;;;21.66;70.06;94649.22;5069016;28;20210;-76
2022/07/25 03:42:40;;;;;;;6.85;4.38;;;;;;;21.70;69.33;94650.00;5059895;28;20227;-75
2022/07/25 03:45:08;;;;;;;8.93;5.15;;;;;;;21.79;68.55;94648.38;5054078;28;20621;-75
2022/07/25 03:47:34;;;;;;;9.73;4.30;;;;;;;21.84;68.67;94650.75;5059908;28;20207;-75
2022/07/25 03:50:01;;;;;;;7.57;4.90;;;;;;;21.96;68.11;94647.53;5056920;28;20297;-74
2022/07/25 03:52:28;;;;;;;8.60;4.78;;;;;;;22.02;67.34;94649.91;5060306;28;20269;-74
2022/07/25 03:54:56;;;;;;;8.05;4.95;;;;;;;22.25;67.22;94648.25;5063618;28;20199;-74
2022/07/25 03:57:23;;;;;;;8.27;4.45;;;;;;;22.72;65.00;94659.00;5060411;28;20743;-76
2022/07/25 03:59:50;;;;;;;7.72;4.18;;;;;;;23.24;63.37;94649.56;5056435;28;20207;-74
2022/07/25 04:02:17;;;;;;;7.88;5.90;;;;;;;23.89;61.67;94650.56;5059020;28;20227;-74
2022/07/25 04:04:44;;;;;;;6.32;4.20;;;;;;;24.48;59.92;94666.84;5063613;28;20739;-75
2022/07/25 04:07:11;;;;;;;8.60;4.80;;;;;;;24.41;59.45;94662.22;5061083;28;20677;-75
2022/07/25 04:09:37;;;;;;;6.30;4.28;;;;;;;24.68;57.97;94653.94;5065587;28;20262;-75
2022/07/25 04:12:06;;;;;;;6.07;4.15;;;;;;;25.49;55.99;94657.44;5061093;28;20203;-73
2022/07/25 04:14:33;;;;;;;7.88;4.93;;;;;;;26.41;53.25;94643.03;5056377;28;20195;-75
2022/07/25 04:17:00;;;;;;;9.77;6.57;;;;;;;27.38;51.30;94636.88;5057986;28;20285;-76
2022/07/25 04:19:27;;;;;;;6.55;5.75;;;;;;;28.34;48.50;94637.91;5063193;28;20203;-74
2022/07/25 04:21:54;;;;;;;5.85;4.03;;;;;;;28.77;47.20;94634.66;5061478;28;20657;-75
2022/07/25 04:24:20;;;;;;;7.60;4.40;;;;;;;29.21;46.46;94624.53;5057021;28;20237;-79
2022/07/25 04:26:47;;;;;;;8.48;6.20;;;;;;;28.86;45.15;94637.56;5057580;28;20304;-74
2022/07/25 04:29:15;;;;;;;7.63;5.90;;;;;;;29.91;44.23;94620.59;5063468;28;20662;-77
2022/07/25 04:31:42;;;;;;;6.55;5.68;;;;;;;30.71;42.73;94625.69;5062092;28;20199;-77
2022/07/25 04:34:09;;;;;;;6.07;5.05;;;;;;;30.22;41.65;94629.06;5051024;28;20203;-73
2022/07/25 04:36:36;;;;;;;6.15;5.18;;;;;;;30.16;42.82;94625.31;5053101;28;20215;-75
2022/07/25 04:39:09;;;;;;;6.72;5.63;;;;;;;30.39;41.26;94621.25;5066781;28;20212;-73
2022/07/25 04:41:36;;;;;;;6.75;5.60;;;;;;;30.93;41.50;94629.22;5061120;28;20341;-74
2022/07/25 04:44:02;;;;;;;7.85;5.80;;;;;;;31.33;40.46;94622.84;5062044;28;20234;-73
2022/07/25 04:46:31;;;;;;;6.57;5.40;;;;;;;32.11;38.84;94628.78;5072987;28;20284;-73
2022/07/25 04:48:57;;;;;;;6.35;5.05;;;;;;;31.94;39.08;94629.53;5060519;28;20206;-75
2022/07/25 04:51:24;;;;;;;6.78;5.60;;;;;;;31.62;39.15;94631.63;5059389;28;20200;-75
2022/07/25 04:53:51;;;;;;;7.28;5.60;;;;;;;31.44;39.48;94623.19;5066060;28;20706;-76
2022/07/25 04:56:18;;;;;;;6.78;5.50;;;;;;;30.27;41.00;94639.69;5066065;28;20257;-73
2022/07/25 04:58:45;;;;;;;6.75;4.88;;;;;;;30.85;40.41;94627.94;5065369;28;20196;-74
2022/07/25 05:01:11;;;;;;;6.47;5.05;;;;;;;31.44;39.06;94626.00;5054227;28;20212;-78
2022/07/25 05:03:39;;;;;;;7.35;5.32;;;;;;;31.08;39.40;94627.41;5065016;28;20281;-71
2022/07/25 05:06:07;;;;;;;7.28;5.95;;;;;;;30.73;40.23;94637.22;5066060;28;20666;-70
2022/07/25 05:08:34;;;;;;;7.88;5.13;;;;;;;30.49;40.46;94631.28;5061337;28;20245;-74
2022/07/25 05:11:00;;;;;;;8.25;5.28;;;;;;;31.04;39.56;94634.38;5059513;28;20601;-74
2022/07/25 05:13:27;;;;;;;6.80;4.97;;;;;;;31.30;39.26;94637.78;5064725;28;20206;-73
2022/07/25 05:15:54;;;;;;;8.07;5.30;;;;;;;31.01;39.43;94638.13;5066281;28;20222;-72
2022/07/25 05:18:21;;;;;;;5.72;5.10;;;;;;;30.59;40.05;94634.94;5062479;28;20243;-73
2022/07/25 05:20:53;;;;;;;7.30;5.50;;;;;;;30.32;40.36;94643.91;5059068;28;20226;-74
2022/07/25 05:23:21;;;;;;;6.00;5.40;;;;;;;30.89;39.99;94639.00;5063152;28;20219;-74
2022/07/25 05:25:48;;;;;;;8.93;5.50;;;;;;;31.01;39.67;94641.69;5059393;28;20238;-73
2022/07/25 05:28:15;;;;;;;8.15;5.32;;;;;;;31.57;39.50;94645.50;5062740;28;20210;-75
2022/07/25 05:30:41;;;;;;;9.82;5.82;;;;;;;31.48;39.27;94646.22;5066308;28;20203;-76
2022/07/25 05:33:08;;;;;;;5.50;4.68;;;;;;;33.05;37.13;94640.97;5062523;28;20731;-74
2022/07/25 05:35:35;;;;;;;5.35;4.82;;;;;;;31.21;38.69;94646.94;5066980;28;20199;-73
2022/07/25 05:38:03;;;;;;;6.10;4.80;;;;;;;29.81;41.63;94649.66;5062807;28;20207;-74
2022/07/25 05:40:30;;;;;;;7.05;5.28;;;;;;;30.49;40.84;94647.25;5058225;28;20743;-73
2022/07/25 05:42:56;;;;;;;7.97;5.35;;;;;;;31.99;37.64;94640.09;5061697;28;20231;-74
2022/07/25 05:45:23;;;;;;;6.22;5.22;;;;;;;32.55;37.56;94644.47;5070037;28;20207;-74
2022/07/25 05:47:50;;;;;;;6.70;5.43;;;;;;;32.02;37.73;94642.00;5060271;28;20211;-73
2022/07/25 05:50:17;;;;;;;7.25;4.63;;;;;;;31.07;39.33;94641.88;5065180;28;20792;-72
2022/07/25 05:52:44;;;;;;;6.35;5.32;;;;;;;31.99;38.82;94634.50;5063280;28;20252;-74
2022/07/25 05:55:12;;;;;;;13.10;5.93;;;;;;;30.95;39.73;94634.34;5058689;28;20296;-75
2022/07/25 05:57:39;;;;;;;7.78;5.85;;;;;;;31.36;39.68;94630.34;5060839;28;20207;-74
2022/07/25 06:00:07;;;;;;;7.70;5.00;;;;;;;30.72;40.46;94632.84;5065609;28;20199;-75
2022/07/25 06:02:34;;;;;;;8.55;5.68;;;;;;;31.31;39.07;94623.31;5064283;28;20223;-73
2022/07/25 06:05:00;;;;;;;6.00;4.72;;;;;;;30.48;40.85;94626.91;5058460;28;20551;-72
2022/07/25 06:07:31;;;;;;;8.20;5.13;;;;;;;31.44;39.39;94631.59;5060025;28;20208;-75
2022/07/25 06:09:57;;;;;;;7.20;5.72;;;;;;;31.56;38.36;94627.91;5058595;28;20202;-73
2022/07/25 06:12:26;;;;;;;6.63;5.85;;;;;;;32.05;38.14;94624.25;5059591;28;20203;-75
2022/07/25 06:14:53;;;;;;;7.10;5.53;;;;;;;33.02;36.98;94616.63;5058797;28;20242;-71
2022/07/25 06:17:20;;;;;;;6.55;5.35;;;;;;;32.64;37.13;94628.44;5058856;28;20203;-76
2022/07/25 06:19:46;;;;;;;10.00;5.60;;;;;;;33.51;36.39;94612.69;5059192;28;20211;-76
2022/07/25 06:22:13;;;;;;;7.40;5.22;;;;;;;32.42;37.12;94625.03;5058795;28;20261;-75
2022/07/25 06:24:40;;;;;;;8.20;5.10;;;;;;;31.31;39.03;94625.31;5064605;28;20227;-75
2022/07/25 06:27:07;;;;;;;5.60;5.10;;;;;;;31.81;38.48;94631.72;5052282;28;20346;-75
2022/07/25 06:29:37;;;;;;;6.10;5.50;;;;;;;31.71;38.09;94634.47;5064761;28;20210;-75
2022/07/25 06:32:04;;;;;;;6.85;5.28;;;;;;;32.36;37.77;94627.69;5065215;28;20677;-74
2022/07/25 06:34:30;;;;;;;7.18;5.22;;;;;;;31.97;37.60;94623.00;5051984;28;20211;-75
2022/07/25 06:36:57;;;;;;;8.00;5.80;;;;;;;31.18;39.17;94630.25;5064379;28;20203;-74
2022/07/25 06:39:24;;;;;;;6.97;5.18;;;;;;;30.46;40.52;94621.03;5060512;28;20531;-71
2022/07/25 06:41:51;;;;;;;8.75;5.47;;;;;;;31.15;39.95;94634.78;5058290;28;20211;-76
2022/07/25 06:44:18;;;;;;;6.15;5.55;;;;;;;32.75;36.89;94628.75;5062784;28;20293;-73
2022/07/25 06:46:46;;;;;;;8.15;5.57;;;;;;;32.44;36.73;94630.94;5065826;28;20525;-75
2022/07/25 06:49:13;;;;;;;12.18;5.78;;;;;;;32.37;37.26;94623.63;5060906;28;20264;-76
2022/07/25 06:51:40;;;;;;;9.65;5.97;;;;;;;33.37;35.05;94616.19;5058149;28;20670;-76
2022/07/25 06:54:07;;;;;;;7.82;5.70;;;;;;;32.05;38.12;94627.03;5061426;28;20671;-75
2022/07/25 06:56:33;;;;;;;6.53;5.13;;;;;;;33.03;36.62;94601.34;5064065;28;20199;-75
2022/07/25 06:59:00;;;;;;;5.75;5.15;;;;;;;32.63;36.52;94612.06;5060884;28;20260;-76
2022/07/25 07:01:27;;;;;;;7.30;5.60;;;;;;;34.02;34.77;94606.91;5057811;28;20210;-76
2022/07/25 07:03:56;;;;;;;7.35;5.53;;;;;;;32.74;36.54;94615.94;5061401;28;20239;-73
2022/07/25 07:06:22;;;;;;;10.07;6.05;;;;;;;33.89;34.93;94607.13;5064243;28;20211;-74
2022/07/25 07:08:49;;;;;;;6.47;5.50;;;;;;;34.75;34.14;94611.06;5050799;28;20303;-75
2022/07/25 07:11:16;;;;;;;8.02;5.68;;;;;;;35.58;32.72;94604.00;5063599;28;20204;-75
2022/07/25 07:13:43;;;;;;;7.53;5.53;;;;;;;36.41;30.65;94599.91;5059403;28;20671;-77
2022/07/25 07:16:10;;;;;;;6.97;5.53;;;;;;;35.89;31.82;94600.59;5057139;28;20673;-73
2022/07/25 07:18:38;;;;;;;7.20;4.90;;;;;;;35.73;31.89;94595.47;5059418;28;20253;-75
2022/07/25 07:21:07;;;;;;;6.82;5.80;;;;;;;34.34;33.96;94605.22;5054831;28;20214;-73
2022/07/25 07:23:33;;;;;;;9.40;5.65;;;;;;;34.39;33.45;94604.56;5059422;28;20235;-73
2022/07/25 07:26:00;;;;;;;11.35;5.90;;;;;;;33.34;35.40;94605.94;5063933;28;20293;-74
2022/07/25 07:28:27;;;;;;;6.22;5.43;;;;;;;32.42;35.74;94614.56;5062335;28;20284;-73
2022/07/25 07:30:54;;;;;;;6.45;5.10;;;;;;;33.59;33.76;94591.41;5056041;28;20616;-76
2022/07/25 07:33:21;;;;;;;7.20;6.25;;;;;;;34.06;32.94;94609.50;5057950;28;20616;-76
2022/07/25 07:35:47;;;;;;;6.63;5.68;;;;;;;33.67;33.85;94598.22;5063434;28;20253;-75
2022/07/25 07:38:16;;;;;;;6.15;5.40;;;;;;;33.92;33.20;94602.59;5062142;28;20199;-76
2022/07/25 07:40:43;;;;;;;8.45;6.00;;;;;;;33.55;33.51;94604.84;5064972;28;20211;-76
2022/07/25 07:43:10;;;;;;;7.45;5.57;;;;;;;33.20;34.44;94604.56;5055032;28;20227;-72
2022/07/25 07:45:37;;;;;;;7.72;6.00;;;;;;;32.10;36.87;94604.78;5070232;28;20260;-74
2022/07/25 07:48:05;;;;;;;7.40;5.70;;;;;;;32.11;35.86;94606.34;5058058;28;20238;-72
2022/07/25 07:50:32;;;;;;;8.82;6.70;;;;;;;33.61;33.94;94600.16;5064085;28;20680;-74
2022/07/25 07:52:59;;;;;;;7.03;5.57;;;;;;;31.93;35.65;94611.16;5050657;28;20288;-75
2022/07/25 07:55:47;;;;;;;6.88;6.00;;;;;;;32.40;34.55;94605.84;5063744;28;20200;-76
2022/07/25 07:58:16;;;;;;;7.15;6.22;;;;;;;33.72;33.02;94594.75;5063016;28;20187;-75
2022/07/25 08:00:44;;;;;;;7.72;5.45;;;;;;;34.05;32.68;94593.91;5060178;28;20273;-76
2022/07/25 08:03:11;;;;;;;8.60;6.30;;;;;;;32.55;34.25;94610.81;5053514;28;20234;-76
2022/07/25 08:05:40;;;;;;;6.53;5.65;;;;;;;32.43;34.58;94606.94;5059613;28;20203;-74
2022/07/25 08:08:09;;;;;;;6.35;5.30;;;;;;;32.46;34.87;94612.41;5066096;28;20203;-74
2022/07/25 08:10:42;;;;;;;7.05;5.72;;;;;;;31.68;35.82;94601.03;5061188;28;20199;-75
2022/07/25 08:13:17;;;;;;;5.90;5.28;;;;;;;32.23;35.23;94598.25;5056509;28;20254;-78
2022/07/25 08:15:46;;;;;;;6.53;5.60;;;;;;;32.63;34.65;94598.03;5057215;28;20225;-72
2022/07/25 08:18:13;;;;;;;10.30;6.03;;;;;;;32.48;35.79;94601.50;5055809;28;20694;-76
2022/07/25 08:20:41;;;;;;;7.95;5.70;;;;;;;32.71;35.29;94599.25;5056421;28;20224;-77
2022/07/25 08:23:09;;;;;;;9.00;6.82;;;;;;;32.23;35.16;94595.47;5056472;28;20214;-75
2022/07/25 08:25:38;;;;;;;7.35;5.93;;;;;;;31.82;33.90;94594.03;5056492;28;20232;-74
2022/07/25 08:28:09;;;;;;;6.10;5.22;;;;;;;32.24;34.53;94603.41;5061996;28;20849;-75
2022/07/25 08:30:38;;;;;;;7.28;5.45;;;;;;;31.41;34.96;94596.13;5063918;28;20213;-73
2022/07/25 08:33:08;;;;;;;6.72;5.45;;;;;;;31.77;34.82;94609.44;5050194;28;20323;-74
2022/07/25 08:35:35;;;;;;;6.85;5.95;;;;;;;31.49;35.10;94588.97;5063214;28;20285;-74
2022/07/25 08:38:03;;;;;;;6.63;5.55;;;;;;;31.60;35.28;94600.50;5060301;28;20727;-74
2022/07/25 08:40:32;;;;;;;6.13;5.53;;;;;;;31.11;35.88;94596.97;5056720;28;20686;-76
2022/07/25 08:43:00;;;;;;;8.48;5.65;;;;;;;30.64;37.91;94603.56;5058826;28;20239;-76
2022/07/25 08:45:28;;;;;;;7.55;5.70;;;;;;;30.16;37.82;94608.53;5068384;28;20268;-75
2022/07/25 08:47:56;;;;;;;7.00;6.03;;;;;;;30.71;37.09;94609.69;5057971;28;20207;-76
2022/07/25 08:50:25;;;;;;;6.88;5.72;;;;;;;30.81;36.96;94590.91;5068183;28;20214;-74
2022/07/25 08:52:53;;;;;;;9.30;6.43;;;;;;;31.25;36.37;94593.59;5057998;28;20696;-78
2022/07/25 08:55:21;;;;;;;7.82;5.60;;;;;;;32.28;35.15;94587.19;5063290;28;20211;-76
2022/07/25 08:57:49;;;;;;;7.20;6.05;;;;;;;32.10;35.50;94587.19;5061994;28;20201;-72
2022/07/25 09:00:20;;;;;;;8.07;5.93;;;;;;;30.84;37.40;94590.00;5056083;28;20273;-76
2022/07/25 09:02:52;;;;;;;6.50;5.70;;;;;;;30.67;37.28;94585.88;5069961;28;20199;-74
2022/07/25 09:05:20;;;;;;;7.13;5.95;;;;;;;30.28;37.68;94593.72;5049818;28;20247;-74
2022/07/25 09:07:47;;;;;;;8.70;5.88;;;;;;;30.63;37.61;94599.22;5049230;28;20295;-73
2022/07/25 09:10:16;;;;;;;7.13;5.63;;;;;;;30.83;36.99;94596.84;5049062;28;20200;-72
2022/07/25 09:12:51;;;;;;;6.03;5.43;;;;;;;30.13;38.23;94587.09;5048638;28;20231;-71
2022/07/25 09:15:26;;;;;;;6.70;5.55;;;;;;;30.71;37.21;94580.94;5049687;28;20298;-74
2022/07/25 09:17:54;;;;;;;6.50;5.47;;;;;;;31.03;37.77;94579.66;5049048;28;20421;-74
2022/07/25 09:20:21;;;;;;;8.48;6.43;;;;;;;30.54;37.65;94574.78;5049404;28;20278;-74
2022/07/25 09:22:48;;;;;;;7.88;5.75;;;;;;;30.10;38.33;94576.81;5050321;28;20549;-74
2022/07/25 09:25:23;;;;;;;7.40;5.40;;;;;;;30.36;37.57;94566.25;5052388;28;20277;-71
2022/07/25 09:27:49;;;;;;;6.88;5.53;;;;;;;30.46;37.87;94569.91;5052986;28;20913;-73
2022/07/25 09:30:17;;;;;;;7.72;5.88;;;;;;;30.38;37.66;94570.16;5053017;28;20215;-77
2022/07/25 09:32:45;;;;;;;7.40;4.85;;;;;;;30.31;37.45;94576.03;5053004;28;20250;-71
2022/07/25 09:35:12;;;;;;;7.38;6.18;;;;;;;30.74;37.79;94569.63;5053006;28;20253;-73
2022/07/25 09:37:39;;;;;;;6.72;5.80;;;;;;;31.25;36.89;94563.59;5052415;28;20234;-75
2022/07/25 09:40:13;;;;;;;9.07;6.38;;;;;;;32.09;34.51;94568.81;5052068;28;20722;-77
2022/07/25 09:42:41;;;;;;;10.75;5.55;;;;;;;32.55;33.84;94554.69;5052197;28;20283;-76
2022/07/25 09:45:11;;;;;;;6.60;5.65;;;;;;;32.26;34.51;94556.00;5055405;28;20231;-75
2022/07/25 09:47:50;;;;;;;8.00;5.30;;;;;;;31.26;36.17;94564.38;5063399;28;20630;-75
2022/07/25 09:50:20;;;;;;;6.43;5.57;;;;;;;31.00;36.68;94564.59;5065962;28;20386;-74
2022/07/25 09:52:47;;;;;;;6.32;5.70;;;;;;;30.34;36.33;94563.91;5064287;28;20210;-73
2022/07/25 09:55:15;;;;;;;5.95;5.35;;;;;;;31.23;34.58;94562.47;5059518;28;20272;-76
2022/07/25 09:57:43;;;;;;;6.28;5.63;;;;;;;32.09;33.72;94549.19;5060934;28;20214;-74
2022/07/25 10:00:12;;;;;;;7.68;5.38;;;;;;;32.09;33.93;94551.97;5065820;28;20204;-75
2022/07/25 10:02:46;;;;;;;8.85;6.32;;;;;;;32.38;34.15;94552.28;5064266;28;20291;-74
2022/07/25 10:05:16;;;;;;;7.50;5.68;;;;;;;31.08;36.04;94559.47;5059369;28;20307;-76
2022/07/25 10:07:47;;;;;;;5.63;4.90;;;;;;;30.10;37.51;94559.25;5059276;28;20338;-77
2022/07/25 10:10:23;;;;;;;5.95;5.13;;;;;;;29.62;37.78;94564.16;5064143;28;20285;-73
2022/07/25 10:13:05;;;;;;;6.45;5.60;;;;;;;29.50;38.62;94557.38;5065707;28;20665;-72
2022/07/25 10:15:46;;;;;;;7.18;5.63;;;;;;;29.53;38.56;94552.91;5063513;28;20203;-73
2022/07/25 10:18:15;;;;;;;8.73;5.40;;;;;;;30.30;36.59;94546.53;5059151;28;20574;-73
2022/07/25 10:20:43;;;;;;;6.90;5.07;;;;;;;31.06;34.67;94545.16;5058261;28;20204;-76
2022/07/25 10:23:23;;;;;;;8.23;5.32;;;;;;;31.87;34.38;94542.94;5059891;28;20261;-76
2022/07/25 10:26:07;;;;;;;6.32;5.45;;;;;;;31.62;34.89;94542.00;5058635;28;20239;-76
2022/07/25 10:28:43;;;;;;;6.18;5.30;;;;;;;32.37;33.65;94528.28;5058938;28;20670;-75
2022/07/25 10:31:20;;;;;;;7.68;5.25;;;;;;;31.73;34.18;94531.13;5058231;28;20244;-72
2022/07/25 10:33:49;;;;;;;7.93;5.88;;;;;;;30.48;35.78;94539.47;5056802;28;20191;-75
2022/07/25 10:36:16;;;;;;;9.45;5.47;;;;;;;30.58;36.49;94543.91;5059690;28;20203;-74
2022/07/25 10:38:46;;;;;;;10.18;5.13;;;;;;;31.48;34.64;94520.19;5056045;28;20234;-76
2022/07/25 10:41:15;;;;;;;7.88;5.28;;;;;;;31.69;33.14;94524.94;5062067;28;20227;-75
2022/07/25 10:43:45;;;;;;;5.93;4.95;;;;;;;32.01;32.78;94515.06;5057755;28;20264;-74
2022/07/25 10:46:13;;;;;;;6.57;4.80;;;;;;;32.26;32.17;94522.38;5071486;28;20714;-75
2022/07/25 10:48:41;;;;;;;6.78;5.50;;;;;;;32.25;32.70;94525.66;5057714;28;20674;-75
2022/07/25 10:51:10;;;;;;;7.45;5.07;;;;;;;32.32;33.36;94531.72;5060278;28;20277;-73
2022/07/25 10:53:39;;;;;;;5.72;5.05;;;;;;;32.87;33.56;94514.72;5064753;28;20299;-78
2022/07/25 10:56:09;;;;;;;8.88;5.20;;;;;;;33.24;32.53;94503.25;5063818;28;20608;-76
2022/07/25 10:58:47;;;;;;;6.55;5.20;;;;;;;32.96;32.68;94511.84;5058123;28;20199;-77
2022/07/25 11:01:19;;;;;;;7.05;5.03;;;;;;;33.03;30.99;94505.13;5057469;28;20208;-78
2022/07/25 11:03:46;;;;;;;6.15;5.10;;;;;;;33.10;31.13;94501.94;5061850;28;20653;-75
2022/07/25 11:06:14;;;;;;;8.13;5.55;;;;;;;32.62;32.13;94498.28;5053689;28;20312;-75
2022/07/25 11:08:42;;;;;;;7.53;5.32;;;;;;;32.30;32.79;94503.34;5062078;28;20694;-76
2022/07/25 11:11:11;;;;;;;6.07;5.15;;;;;;;32.09;32.82;94507.91;5053836;28;20287;-76
2022/07/25 11:13:39;;;;;;;7.07;5.50;;;;;;;31.31;34.42;94507.72;5060892;28;20195;-73
2022/07/25 11:16:06;;;;;;;7.45;5.38;;;;;;;31.27;33.83;94501.53;5064283;28;20200;-77
2022/07/25 11:18:36;;;;;;;6.55;5.32;;;;;;;31.24;35.23;94502.44;5060847;28;20231;-73
2022/07/25 11:21:05;;;;;;;5.88;4.72;;;;;;;31.17;31.83;94499.94;5053280;28;20627;-75
2022/07/25 11:23:32;;;;;;;9.18;4.85;;;;;;;31.71;30.69;94494.41;5062045;28;20210;-75
2022/07/25 11:26:07;;;;;;;6.82;4.57;;;;;;;32.51;30.15;94486.78;5056917;28;20246;-75
2022/07/25 11:28:44;;;;;;;5.68;4.72;;;;;;;33.35;28.76;94478.28;5057710;28;20593;-75
2022/07/25 11:31:12;;;;;;;5.82;4.90;;;;;;;34.11;29.13;94473.88;5058284;28;20197;-74
2022/07/25 11:33:43;;;;;;;5.10;4.60;;;;;;;32.61;30.19;94477.06;5057347;28;20200;-74
2022/07/25 11:36:10;;;;;;;5.05;4.55;;;;;;;31.84;32.68;94483.03;5062242;28;20192;-75